Terminal Aerodrome Forecast
Issued by NWS

Home | Current Version | Previous Version | Text Only | Print | Product List | Glossary On
Versions: 1 2 3 4 5 6 7 8 9 10 11 12 13 14 15 16 17 18 19 20
000
FTUS42 KMHX 191950 AAA
TAFOAJ
TAF AMD
KOAJ 191950Z 1920/2018 17010KT P6SM SCT025 BKN050 OVC060
     FM192300 17005KT P6SM BKN025
     FM200000 VRB04KT P6SM BKN015
     FM200200 VRB03KT P6SM BKN007
     FM200400 VRB03KT 2SM BR BKN003
     FM200600 VRB03KT 2SM BR BKN001
     FM201300 VRB03KT P6SM BKN010
     FM201700 19010KT P6SM BKN040
      AMD LTD TO CLD VIS AND WIND=

USA.gov is the U.S. government's official web portal to all federal, state and local government web resources and services.